Time;durP1;ratioP1;P1;durP2;ratioP2;P2;SDS_P1;SDS_P2;PMS_P1;PMS_P2;Temp;Humidity;BMP_temperature;BMP_pressure;BME280_temperature;BME280_humidity;BME280_pressure;Samples;Min_cycle;Max_cycle;Signal;HPM_P1;HPM_P2
2022/05/02 00:01:13;;;;;;;10.00;6.37;;;;;9.20;101525.00;;;;4905083;29;20367;-69
2022/05/02 00:04:00;;;;;;;10.83;6.43;;;;;9.20;101498.00;;;;4901498;29;20246;-69
2022/05/02 00:06:46;;;;;;;12.37;6.63;;;;;9.20;101522.00;;;;4908454;29;20234;-69
2022/05/02 00:09:34;;;;;;;9.93;6.63;;;;;9.10;101515.00;;;;4908024;29;20630;-68
2022/05/02 00:12:20;;;;;;;12.90;6.80;;;;;9.00;101526.00;;;;4908229;29;20238;-67
2022/05/02 00:15:07;;;;;;;12.93;7.43;;;;;9.00;101518.00;;;;4902397;29;20230;-68
2022/05/02 00:17:57;;;;;;;14.07;6.90;;;;;9.00;101516.00;;;;4910267;29;20237;-68
2022/05/02 00:20:43;;;;;;;8.97;6.10;;;;;9.00;101511.00;;;;4910368;29;20242;-70
2022/05/02 00:23:30;;;;;;;10.27;6.63;;;;;8.90;101512.00;;;;4930632;28;20244;-67
2022/05/02 00:26:17;;;;;;;10.57;6.20;;;;;8.90;101505.00;;;;4931051;28;20297;-69
2022/05/02 00:29:04;;;;;;;11.10;6.70;;;;;8.70;101506.00;;;;4905308;29;20229;-68
2022/05/02 00:31:50;;;;;;;13.83;6.93;;;;;8.80;101511.00;;;;4911233;29;20321;-65
2022/05/02 00:34:36;;;;;;;10.63;6.60;;;;;8.80;101495.00;;;;4911140;29;20237;-68
2022/05/02 00:37:22;;;;;;;15.00;6.47;;;;;8.90;101494.00;;;;4911374;29;20728;-68
2022/05/02 00:40:11;;;;;;;10.70;7.03;;;;;8.80;101497.00;;;;4905498;29;20237;-68
2022/05/02 00:42:59;;;;;;;12.43;6.50;;;;;8.80;101489.00;;;;4903797;29;20249;-68
2022/05/02 00:45:45;;;;;;;10.13;6.43;;;;;8.80;101491.00;;;;4909956;29;20283;-68
2022/05/02 00:48:32;;;;;;;11.30;7.03;;;;;8.80;101483.00;;;;4911135;29;20254;-68
2022/05/02 00:51:19;;;;;;;11.60;6.83;;;;;8.80;101478.00;;;;4909461;29;20708;-68
2022/05/02 00:54:05;;;;;;;11.23;6.57;;;;;8.80;101477.00;;;;4907159;29;20237;-68
2022/05/02 00:56:52;;;;;;;11.47;6.93;;;;;8.80;101471.00;;;;4911337;29;20229;-68
2022/05/02 00:59:41;;;;;;;11.70;6.70;;;;;8.80;101476.00;;;;4911439;29;20368;-68
2022/05/02 01:02:27;;;;;;;14.00;6.70;;;;;8.60;101470.00;;;;4910870;29;20755;-65
2022/05/02 01:05:13;;;;;;;10.37;6.30;;;;;8.70;101474.00;;;;4905654;29;20294;-68
2022/05/02 01:07:59;;;;;;;11.60;6.43;;;;;8.70;101471.00;;;;4903690;29;20788;-68
2022/05/02 01:10:45;;;;;;;11.70;6.80;;;;;8.70;101463.00;;;;4920760;28;21016;-69
2022/05/02 01:13:35;;;;;;;12.43;6.67;;;;;8.60;101462.00;;;;4939495;28;20245;-68
2022/05/02 01:16:27;;;;;;;11.53;6.47;;;;;8.60;101460.00;;;;4925645;28;20241;-68
2022/05/02 01:19:14;;;;;;;12.57;6.70;;;;;8.60;101465.00;;;;4923914;28;20237;-67
2022/05/02 01:22:02;;;;;;;10.90;6.97;;;;;8.50;101469.00;;;;4908518;29;20821;-66
2022/05/02 01:24:49;;;;;;;12.10;7.27;;;;;8.50;101471.00;;;;4910864;29;20250;-68
2022/05/02 01:27:37;;;;;;;11.00;6.67;;;;;8.40;101474.00;;;;4915918;29;20253;-68
2022/05/02 01:30:23;;;;;;;13.17;7.00;;;;;8.30;101472.00;;;;4929236;28;20618;-66
2022/05/02 01:33:10;;;;;;;13.50;7.13;;;;;8.30;101467.00;;;;4905495;29;20395;-67
2022/05/02 01:35:57;;;;;;;9.93;6.10;;;;;8.20;101475.00;;;;4910866;29;20233;-67
2022/05/02 01:38:45;;;;;;;10.73;6.47;;;;;8.20;101461.00;;;;4910652;29;20234;-68
2022/05/02 01:41:31;;;;;;;10.50;6.50;;;;;8.10;101465.00;;;;4906711;29;20434;-68
2022/05/02 01:44:17;;;;;;;12.83;6.67;;;;;8.10;101457.00;;;;4905602;29;20240;-66
2022/05/02 01:47:04;;;;;;;10.87;6.57;;;;;8.10;101458.00;;;;4904622;29;20240;-68
2022/05/02 01:49:50;;;;;;;10.50;6.37;;;;;8.00;101459.00;;;;4909465;29;20390;-68
2022/05/02 01:52:36;;;;;;;12.27;6.80;;;;;8.00;101456.00;;;;4928289;28;20249;-69
2022/05/02 01:55:24;;;;;;;10.77;6.77;;;;;7.90;101466.00;;;;4929117;28;20245;-66
2022/05/02 01:58:11;;;;;;;13.73;7.20;;;;;7.90;101456.00;;;;4904979;29;20742;-66
2022/05/02 02:00:57;;;;;;;11.90;6.67;;;;;7.90;101459.00;;;;4928199;28;20237;-68
2022/05/02 02:03:44;;;;;;;11.93;7.23;;;;;7.90;101460.00;;;;4928942;28;20247;-69
2022/05/02 02:06:29;;;;;;;12.17;6.50;;;;;7.90;101458.00;;;;4928896;28;20236;-68
2022/05/02 02:09:16;;;;;;;9.57;6.53;;;;;7.80;101449.00;;;;4907515;28;20237;-67
2022/05/02 02:12:05;;;;;;;11.07;6.63;;;;;7.70;101456.00;;;;4907554;29;20249;-66
2022/05/02 02:14:51;;;;;;;9.70;6.63;;;;;7.70;101459.00;;;;4904818;29;20240;-69
2022/05/02 02:17:38;;;;;;;12.13;6.43;;;;;7.80;101459.00;;;;4915857;28;20236;-68
2022/05/02 02:20:24;;;;;;;11.87;6.60;;;;;7.70;101452.00;;;;4926004;28;20281;-69
2022/05/02 02:23:11;;;;;;;12.10;6.53;;;;;7.70;101460.00;;;;4922205;28;20248;-68
2022/05/02 02:25:57;;;;;;;11.43;7.27;;;;;7.70;101464.00;;;;4928566;28;20241;-66
2022/05/02 02:28:44;;;;;;;18.33;7.50;;;;;7.60;101456.00;;;;4928701;28;20620;-68
2022/05/02 02:31:31;;;;;;;10.37;7.00;;;;;7.60;101456.00;;;;4928188;28;20280;-67
2022/05/02 02:34:17;;;;;;;14.67;7.00;;;;;7.60;101459.00;;;;4928666;28;20247;-69
2022/05/02 02:37:04;;;;;;;12.67;6.27;;;;;7.50;101454.00;;;;4904194;29;20233;-68
2022/05/02 02:39:49;;;;;;;12.27;7.37;;;;;7.50;101445.00;;;;4908516;29;20903;-66
2022/05/02 02:42:36;;;;;;;10.50;7.00;;;;;7.40;101446.00;;;;4908704;29;20316;-68
2022/05/02 02:45:24;;;;;;;11.43;7.27;;;;;7.30;101441.00;;;;4899813;29;20241;-68
2022/05/02 02:48:11;;;;;;;12.77;7.00;;;;;7.30;101441.00;;;;4909394;29;20738;-68
2022/05/02 02:51:00;;;;;;;14.43;6.70;;;;;7.30;101448.00;;;;4915305;29;20711;-67
2022/05/02 02:53:48;;;;;;;13.13;7.13;;;;;7.30;101441.00;;;;4909456;29;20237;-67
2022/05/02 02:56:35;;;;;;;13.60;7.27;;;;;7.30;101440.00;;;;4909337;29;20260;-68
2022/05/02 02:59:21;;;;;;;10.30;7.13;;;;;7.10;101428.00;;;;4903900;29;20237;-68
2022/05/02 03:02:09;;;;;;;11.20;7.33;;;;;7.10;101427.00;;;;4901304;29;20241;-68
2022/05/02 03:07:59;;;;;;;14.43;6.93;;;;;7.10;101419.00;;;;4909053;29;20714;-68
2022/05/02 03:10:46;;;;;;;12.37;7.13;;;;;7.00;101414.00;;;;4908658;29;20232;-64
2022/05/02 03:13:34;;;;;;;13.77;7.97;;;;;7.00;101410.00;;;;4908756;29;20323;-68
2022/05/02 03:16:20;;;;;;;14.33;7.43;;;;;7.00;101413.00;;;;4900901;29;20365;-68
2022/05/02 03:19:07;;;;;;;11.13;6.73;;;;;7.00;101410.00;;;;4911895;28;20236;-66
2022/05/02 03:21:54;;;;;;;13.00;6.73;;;;;7.00;101408.00;;;;4927164;28;20307;-68
2022/05/02 03:24:40;;;;;;;12.93;7.33;;;;;6.90;101408.00;;;;4928296;28;20235;-66
2022/05/02 03:27:27;;;;;;;14.30;7.77;;;;;6.90;101405.00;;;;4904172;29;20241;-68
2022/05/02 03:30:14;;;;;;;11.23;7.27;;;;;6.90;101394.00;;;;4902450;29;20284;-68
2022/05/02 03:33:01;;;;;;;13.63;7.50;;;;;6.90;101397.00;;;;4908819;29;20693;-66
2022/05/02 03:35:48;;;;;;;13.00;7.80;;;;;6.90;101397.00;;;;4908597;29;20304;-68
2022/05/02 03:38:34;;;;;;;11.63;7.23;;;;;7.00;101402.00;;;;4908394;29;20237;-67
2022/05/02 03:41:20;;;;;;;15.57;7.37;;;;;6.90;101405.00;;;;4902613;29;20233;-68
2022/05/02 03:44:07;;;;;;;14.67;7.77;;;;;7.00;101398.00;;;;4900419;29;20241;-68
2022/05/02 03:46:53;;;;;;;13.47;7.73;;;;;6.90;101402.00;;;;4902126;29;20626;-68
2022/05/02 03:49:39;;;;;;;10.33;6.77;;;;;6.90;101397.00;;;;4906662;29;20240;-68
2022/05/02 03:52:27;;;;;;;13.63;7.43;;;;;7.00;101396.00;;;;4905534;29;20233;-68
2022/05/02 03:55:13;;;;;;;11.00;6.70;;;;;7.00;101397.00;;;;4907674;29;20276;-69
2022/05/02 03:57:59;;;;;;;11.33;6.93;;;;;6.90;101395.00;;;;4912133;29;20232;-68
2022/05/02 04:00:46;;;;;;;10.50;6.50;;;;;6.90;101396.00;;;;4912241;29;20232;-69
2022/05/02 04:03:33;;;;;;;11.90;6.50;;;;;6.90;101402.00;;;;4912375;29;20248;-68
2022/05/02 04:06:19;;;;;;;11.33;7.50;;;;;6.80;101394.00;;;;4906338;29;20236;-68
2022/05/02 04:09:06;;;;;;;15.13;6.90;;;;;6.80;101390.00;;;;4912046;29;20237;-68
2022/05/02 04:11:53;;;;;;;14.93;8.30;;;;;6.70;101395.00;;;;4911677;29;20284;-67
2022/05/02 04:14:39;;;;;;;12.27;7.50;;;;;6.80;101400.00;;;;4912218;29;20310;-67
2022/05/02 04:17:25;;;;;;;12.57;7.63;;;;;6.90;101402.00;;;;4906182;29;20233;-67
2022/05/02 04:20:12;;;;;;;13.00;7.30;;;;;6.90;101392.00;;;;4930096;28;20887;-67
2022/05/02 04:22:58;;;;;;;13.17;7.37;;;;;6.90;101402.00;;;;4930452;28;20235;-68
2022/05/02 04:25:46;;;;;;;12.13;7.30;;;;;6.90;101397.00;;;;4931032;28;20248;-66
2022/05/02 04:28:34;;;;;;;10.87;6.70;;;;;6.90;101390.00;;;;4930911;28;20237;-66
2022/05/02 04:31:20;;;;;;;10.80;6.33;;;;;6.90;101394.00;;;;4909101;29;20688;-66
2022/05/02 04:34:06;;;;;;;11.97;7.60;;;;;7.00;101404.00;;;;4914840;28;20356;-65
2022/05/02 04:36:53;;;;;;;10.87;7.07;;;;;7.00;101392.00;;;;4930199;28;20741;-65
2022/05/02 04:39:39;;;;;;;10.77;6.83;;;;;7.00;101397.00;;;;4930921;28;20264;-66
2022/05/02 04:42:26;;;;;;;12.20;7.20;;;;;7.10;101395.00;;;;4908623;28;20373;-63
2022/05/02 04:45:12;;;;;;;12.33;7.07;;;;;7.00;101398.00;;;;4904349;28;20240;-66
2022/05/02 04:47:58;;;;;;;12.67;7.00;;;;;7.10;101394.00;;;;4914561;28;20228;-67
2022/05/02 04:50:45;;;;;;;12.17;6.80;;;;;7.20;101405.00;;;;4930228;28;20303;-64
2022/05/02 04:53:31;;;;;;;12.03;6.90;;;;;7.30;101402.00;;;;4908411;29;20312;-68
2022/05/02 04:56:17;;;;;;;11.67;7.60;;;;;7.30;101395.00;;;;4904834;29;20273;-62
2022/05/02 04:59:05;;;;;;;13.73;7.50;;;;;7.30;101397.00;;;;4911212;29;20358;-67
2022/05/02 05:01:51;;;;;;;13.40;6.83;;;;;7.30;101403.00;;;;4909912;29;20605;-65
2022/05/02 05:04:38;;;;;;;11.93;6.77;;;;;7.40;101406.00;;;;4910714;29;20245;-63
2022/05/02 05:07:24;;;;;;;9.97;6.83;;;;;7.50;101409.00;;;;4905134;29;20229;-66
2022/05/02 05:10:11;;;;;;;11.33;6.43;;;;;7.60;101399.00;;;;4910820;29;20229;-68
2022/05/02 05:13:06;;;;;;;13.33;7.73;;;;;7.60;101404.00;;;;4910795;29;20704;-68
2022/05/02 05:16:24;;;;;;;12.73;7.63;;;;;7.70;101403.00;;;;4910451;29;20237;-67
2022/05/02 05:19:28;;;;;;;13.07;7.20;;;;;7.80;101412.00;;;;4919841;28;20668;-66
2022/05/02 05:22:24;;;;;;;12.97;7.63;;;;;7.90;101405.00;;;;4907277;29;20444;-66
2022/05/02 05:25:25;;;;;;;12.30;7.30;;;;;8.10;101402.00;;;;4910617;29;20237;-68
2022/05/02 05:28:29;;;;;;;13.23;7.10;;;;;8.20;101405.00;;;;4910345;29;20239;-68
2022/05/02 05:31:30;;;;;;;12.77;6.70;;;;;8.10;101407.00;;;;4902827;29;20782;-67
2022/05/02 05:34:27;;;;;;;10.73;6.70;;;;;8.40;101409.00;;;;4902987;29;20237;-67
2022/05/02 05:37:55;;;;;;;11.83;6.30;;;;;8.70;101402.00;;;;4910478;29;20363;-69
2022/05/02 05:40:43;;;;;;;10.27;6.93;;;;;8.80;101411.00;;;;4905954;29;20324;-68
2022/05/02 05:43:44;;;;;;;14.03;7.37;;;;;9.00;101406.00;;;;4904596;29;20402;-67
2022/05/02 05:46:55;;;;;;;9.73;5.70;;;;;9.10;101407.00;;;;4904840;29;20770;-67
2022/05/02 05:49:51;;;;;;;12.20;6.77;;;;;9.20;101406.00;;;;4905908;29;20305;-69
2022/05/02 05:52:51;;;;;;;11.00;5.97;;;;;9.30;101406.00;;;;4904976;29;20243;-67
2022/05/02 05:55:55;;;;;;;10.83;6.37;;;;;9.50;101401.00;;;;4907667;29;20236;-67
2022/05/02 05:58:48;;;;;;;10.47;5.80;;;;;9.50;101405.00;;;;4910210;29;20237;-66
2022/05/02 06:02:04;;;;;;;10.03;6.33;;;;;9.50;101405.00;;;;4909630;29;20324;-66
2022/05/02 06:04:52;;;;;;;8.97;5.77;;;;;9.70;101396.00;;;;4905906;29;20342;-68
2022/05/02 06:07:39;;;;;;;9.40;5.80;;;;;9.80;101400.00;;;;4910039;29;20250;-67
2022/05/02 06:10:28;;;;;;;8.13;5.33;;;;;10.00;101374.00;;;;4903350;29;20234;-66
2022/05/02 06:13:15;;;;;;;8.33;5.20;;;;;10.10;101396.00;;;;4909629;29;20276;-68
2022/05/02 06:19:30;;;;;;;9.67;5.77;;;;;10.30;101398.00;;;;4908193;28;20239;-67
2022/05/02 06:22:18;;;;;;;8.07;5.00;;;;;10.50;101401.00;;;;4909316;29;20250;-68
2022/05/02 06:25:06;;;;;;;7.90;5.40;;;;;10.50;101396.00;;;;4909183;29;20323;-66
2022/05/02 06:27:53;;;;;;;7.87;4.77;;;;;10.60;101385.00;;;;4907601;29;20379;-67
2022/05/02 06:30:42;;;;;;;8.90;5.23;;;;;10.50;101400.00;;;;4909284;29;20240;-67
2022/05/02 06:33:29;;;;;;;8.43;5.53;;;;;10.50;101403.00;;;;4903312;29;20243;-66
2022/05/02 06:36:42;;;;;;;9.27;5.10;;;;;10.50;101413.00;;;;4909597;29;20232;-68
2022/05/02 06:39:38;;;;;;;8.00;5.07;;;;;10.50;101411.00;;;;4898736;29;20450;-67
2022/05/02 06:42:31;;;;;;;8.33;5.20;;;;;10.80;101412.00;;;;4902200;29;20244;-67
2022/05/02 06:45:30;;;;;;;11.17;5.37;;;;;10.80;101409.00;;;;4908979;29;20332;-66
2022/05/02 06:48:34;;;;;;;9.63;5.37;;;;;10.80;101406.00;;;;4920045;28;20236;-67
2022/05/02 06:51:29;;;;;;;9.60;5.20;;;;;10.80;101404.00;;;;4927775;28;20255;-67
2022/05/02 06:54:38;;;;;;;9.00;5.60;;;;;11.00;101410.00;;;;4928179;28;20637;-68
2022/05/02 06:57:41;;;;;;;9.07;5.67;;;;;11.00;101416.00;;;;4904457;29;20237;-67
2022/05/02 07:00:35;;;;;;;11.23;5.77;;;;;11.10;101417.00;;;;4902522;29;20239;-66
2022/05/02 07:03:49;;;;;;;8.37;5.57;;;;;11.40;101407.00;;;;4901274;29;20233;-70
2022/05/02 07:06:50;;;;;;;8.90;4.83;;;;;11.30;101409.00;;;;4903212;29;20927;-66
2022/05/02 07:09:42;;;;;;;9.77;5.60;;;;;11.50;101405.00;;;;4903281;29;20356;-64
2022/05/02 07:12:31;;;;;;;9.27;6.17;;;;;11.70;101411.00;;;;4902277;29;20241;-66
2022/05/02 07:15:22;;;;;;;9.30;5.53;;;;;11.80;101415.00;;;;4908907;29;20749;-68
2022/05/02 07:18:18;;;;;;;7.83;5.27;;;;;11.90;101415.00;;;;4915005;28;20235;-66
2022/05/02 07:21:18;;;;;;;9.67;6.13;;;;;11.90;101415.00;;;;4927263;28;20244;-68
2022/05/02 07:24:16;;;;;;;10.20;5.63;;;;;12.20;101415.00;;;;4927146;28;20255;-67
2022/05/02 07:27:11;;;;;;;10.20;5.77;;;;;12.20;101412.00;;;;4927062;28;20245;-67
2022/05/02 07:29:59;;;;;;;9.30;5.90;;;;;12.30;101409.00;;;;4927511;28;20248;-66
2022/05/02 07:32:45;;;;;;;8.73;5.13;;;;;12.50;101410.00;;;;4927464;28;20235;-63
2022/05/02 07:35:32;;;;;;;8.47;5.03;;;;;12.70;101409.00;;;;4902055;29;20718;-67
2022/05/02 07:38:21;;;;;;;9.57;5.43;;;;;12.70;101408.00;;;;4908402;29;20338;-67
2022/05/02 07:41:25;;;;;;;8.30;4.83;;;;;12.80;101378.00;;;;4908092;29;20264;-67
2022/05/02 07:44:13;;;;;;;8.10;4.90;;;;;12.80;101407.00;;;;4908343;29;20245;-67
2022/05/02 07:47:03;;;;;;;7.07;5.00;;;;;13.00;101408.00;;;;4907843;29;20277;-68
2022/05/02 07:49:51;;;;;;;7.90;5.37;;;;;13.10;101412.00;;;;4908916;29;20250;-67
2022/05/02 07:52:40;;;;;;;8.43;4.73;;;;;13.30;101416.00;;;;4902922;29;20799;-66
2022/05/02 07:55:29;;;;;;;7.87;5.27;;;;;13.40;101416.00;;;;4901543;29;20229;-68
2022/05/02 07:58:18;;;;;;;7.53;4.83;;;;;13.60;101406.00;;;;4908540;29;20354;-66
2022/05/02 08:01:04;;;;;;;8.07;4.97;;;;;13.80;101412.00;;;;4907871;29;20265;-68
2022/05/02 08:03:52;;;;;;;7.07;4.60;;;;;13.90;101409.00;;;;4908419;29;20237;-67
2022/05/02 08:07:00;;;;;;;7.80;4.90;;;;;14.20;101403.00;;;;4902690;29;20618;-67
2022/05/02 08:10:17;;;;;;;9.13;4.73;;;;;14.40;101398.00;;;;4903397;29;20237;-68
2022/05/02 08:13:10;;;;;;;7.77;4.77;;;;;14.40;101409.00;;;;4905443;29;20237;-67
2022/05/02 08:16:02;;;;;;;8.20;4.40;;;;;14.40;101407.00;;;;4908558;29;20357;-67
2022/05/02 08:19:04;;;;;;;8.27;4.50;;;;;14.40;101405.00;;;;4910950;28;20232;-66
2022/05/02 08:27:15;;;;;;;5.60;4.10;;;;;14.50;101398.00;;;;4906606;29;20362;-69
2022/05/02 08:28:33;;;;;;;8.70;4.90;;;;;14.90;101399.00;;;;4923322;28;20854;-69
2022/05/02 08:31:25;;;;;;;7.37;4.23;;;;;15.00;101406.00;;;;4926016;28;20233;-68
2022/05/02 08:34:26;;;;;;;8.20;5.07;;;;;15.20;101398.00;;;;4926851;28;20244;-68
2022/05/02 08:37:34;;;;;;;7.20;4.53;;;;;15.40;101398.00;;;;4927007;28;20374;-64
2022/05/02 08:40:47;;;;;;;7.17;4.77;;;;;15.60;101405.00;;;;4930643;28;20241;-67
2022/05/02 08:43:53;;;;;;;7.93;4.77;;;;;15.80;101395.00;;;;4910374;29;20758;-68
2022/05/02 08:47:23;;;;;;;6.37;4.63;;;;;15.80;101394.00;;;;4905510;29;20608;-67
2022/05/02 08:50:23;;;;;;;8.77;4.97;;;;;16.10;101395.00;;;;4908714;29;20245;-67
2022/05/02 08:53:51;;;;;;;7.67;4.93;;;;;16.30;101391.00;;;;4910716;29;21026;-68
2022/05/02 08:57:14;;;;;;;7.10;4.97;;;;;16.40;101403.00;;;;4911189;29;21013;-66
2022/05/02 09:00:04;;;;;;;6.97;4.87;;;;;16.30;101397.00;;;;4908230;29;20255;-68
2022/05/02 09:03:19;;;;;;;7.43;4.80;;;;;16.60;101402.00;;;;4906597;29;20385;-68
2022/05/02 09:06:41;;;;;;;7.67;4.60;;;;;16.40;101405.00;;;;4908317;29;20247;-69
2022/05/02 09:09:48;;;;;;;7.63;5.13;;;;;16.60;101394.00;;;;4903187;29;20237;-68
2022/05/02 09:13:17;;;;;;;6.90;5.27;;;;;16.60;101392.00;;;;4903790;29;20305;-69
2022/05/02 09:16:48;;;;;;;8.13;4.63;;;;;16.80;101402.00;;;;4907812;28;20255;-67
2022/05/02 09:20:07;;;;;;;9.80;4.90;;;;;17.00;101394.00;;;;4920979;28;20637;-65
2022/05/02 09:23:34;;;;;;;10.30;5.20;;;;;17.40;101392.00;;;;4898346;29;20240;-67
2022/05/02 09:26:49;;;;;;;9.43;4.87;;;;;17.50;101404.00;;;;4928063;28;20315;-67
2022/05/02 09:30:20;;;;;;;7.37;4.90;;;;;17.60;101400.00;;;;4929422;28;20369;-68
2022/05/02 09:33:37;;;;;;;7.40;4.93;;;;;17.70;101393.00;;;;4926223;28;20260;-70
2022/05/02 09:36:27;;;;;;;8.73;5.40;;;;;17.60;101381.00;;;;4929197;28;20425;-67
2022/05/02 09:39:15;;;;;;;8.70;5.33;;;;;17.70;101388.00;;;;4929180;28;22413;-68
2022/05/02 09:42:11;;;;;;;7.43;5.20;;;;;17.60;101385.00;;;;4929521;28;20240;-67
2022/05/02 09:51:59;;;;;;;8.87;5.20;;;;;204.60;224519.00;;;;4903742;29;20233;-68
2022/05/02 09:58:32;;;;;;;6.90;4.57;;;;;204.60;224519.00;;;;4909762;29;20237;-68
2022/05/02 10:01:23;;;;;;;8.13;5.33;;;;;18.00;224519.00;;;;4928244;28;20236;-68
2022/05/02 10:04:48;;;;;;;7.07;4.83;;;;;18.60;101373.00;;;;4928798;28;20237;-69
2022/05/02 10:07:41;;;;;;;7.43;4.70;;;;;18.60;101366.00;;;;4888171;29;20334;-67
2022/05/02 10:10:36;;;;;;;9.93;5.30;;;;;18.50;101364.00;;;;4928330;28;20328;-67
2022/05/02 10:13:33;;;;;;;8.27;4.57;;;;;18.80;101366.00;;;;4928866;28;20317;-70
2022/05/02 10:16:33;;;;;;;12.17;5.53;;;;;18.90;101360.00;;;;4930001;28;20273;-67
2022/05/02 10:19:31;;;;;;;6.60;4.50;;;;;19.00;101359.00;;;;4928621;28;20309;-67
2022/05/02 10:22:24;;;;;;;10.70;5.30;;;;;18.80;101357.00;;;;4928700;28;20369;-66
2022/05/02 10:25:19;;;;;;;7.43;5.13;;;;;19.30;101356.00;;;;4928731;28;20240;-68
2022/05/02 10:28:09;;;;;;;8.43;5.40;;;;;19.50;101351.00;;;;4928681;28;20256;-68
2022/05/02 10:31:04;;;;;;;7.07;4.80;;;;;19.50;101351.00;;;;4928646;28;20370;-67
2022/05/02 10:33:52;;;;;;;9.50;5.00;;;;;19.40;101355.00;;;;4928823;28;20337;-68
2022/05/02 10:36:41;;;;;;;8.13;5.73;;;;;19.60;101348.00;;;;4902822;29;20252;-64
2022/05/02 10:39:38;;;;;;;9.70;5.63;;;;;19.50;101348.00;;;;4909492;29;20237;-67
2022/05/02 10:42:30;;;;;;;7.93;5.70;;;;;19.70;101345.00;;;;4909031;29;20237;-68
2022/05/02 10:45:24;;;;;;;7.93;5.53;;;;;19.70;101335.00;;;;4909145;29;20711;-67
2022/05/02 10:48:34;;;;;;;8.47;5.67;;;;;19.80;101340.00;;;;4909249;29;20448;-66
2022/05/02 10:51:35;;;;;;;10.83;5.10;;;;;20.00;101347.00;;;;4907421;29;20329;-68
2022/05/02 10:54:42;;;;;;;9.57;5.70;;;;;20.20;101344.00;;;;4909238;29;20245;-70
2022/05/02 10:57:35;;;;;;;11.40;5.80;;;;;20.50;101334.00;;;;4910019;29;20313;-69
2022/05/02 11:00:23;;;;;;;9.03;5.20;;;;;20.70;101320.00;;;;4909000;29;20241;-69
2022/05/02 11:03:25;;;;;;;7.50;5.33;;;;;21.00;101331.00;;;;4909139;29;20264;-67
2022/05/02 11:06:26;;;;;;;12.43;5.67;;;;;20.90;101330.00;;;;4906222;29;20308;-69
2022/05/02 11:09:21;;;;;;;9.23;5.77;;;;;21.00;101328.00;;;;4908901;29;20245;-69
2022/05/02 11:12:14;;;;;;;8.27;5.33;;;;;21.30;101342.00;;;;4908953;29;20250;-69
2022/05/02 11:15:06;;;;;;;11.60;6.10;;;;;21.20;101327.00;;;;4908939;29;20314;-64
2022/05/02 11:18:04;;;;;;;9.17;5.97;;;;;21.40;101329.00;;;;4903498;29;20254;-68
2022/05/02 11:20:54;;;;;;;8.67;5.57;;;;;21.60;101328.00;;;;4903010;29;20411;-68
2022/05/02 11:24:09;;;;;;;8.63;5.97;;;;;21.40;101322.00;;;;4901797;29;20280;-67
2022/05/02 11:27:05;;;;;;;9.77;5.70;;;;;21.20;101318.00;;;;4903712;29;20336;-68
2022/05/02 11:30:01;;;;;;;11.37;5.70;;;;;21.50;101314.00;;;;4903400;29;20330;-68
2022/05/02 11:33:12;;;;;;;9.07;5.67;;;;;21.30;101328.00;;;;4902352;29;20690;-69
2022/05/02 11:36:00;;;;;;;8.27;5.57;;;;;21.40;101311.00;;;;4916143;28;20292;-70
2022/05/02 11:38:55;;;;;;;7.33;5.50;;;;;21.80;101309.00;;;;4902400;29;20246;-67
2022/05/02 11:41:44;;;;;;;9.30;6.47;;;;;22.00;101303.00;;;;4902723;28;20253;-68
2022/05/02 11:44:33;;;;;;;9.87;6.60;;;;;21.80;101303.00;;;;4908484;29;20375;-68
2022/05/02 11:47:32;;;;;;;9.07;6.20;;;;;21.60;101296.00;;;;4908465;29;20240;-68
2022/05/02 11:50:22;;;;;;;8.73;5.97;;;;;21.70;101299.00;;;;4901704;29;20372;-68
2022/05/02 11:53:10;;;;;;;10.10;5.43;;;;;22.40;101295.00;;;;4908269;29;20245;-68
2022/05/02 11:55:56;;;;;;;8.63;5.33;;;;;22.60;101291.00;;;;4900051;29;20879;-68
2022/05/02 11:58:45;;;;;;;7.47;5.30;;;;;22.80;101306.00;;;;4901515;29;20240;-67
2022/05/02 12:01:37;;;;;;;9.13;5.20;;;;;22.60;101296.00;;;;4907720;29;20244;-68
2022/05/02 12:04:30;;;;;;;7.67;4.50;;;;;22.70;101292.00;;;;4908297;29;20309;-67
2022/05/02 12:07:28;;;;;;;6.93;5.03;;;;;23.00;101292.00;;;;4908160;29;20250;-67
2022/05/02 12:10:15;;;;;;;7.73;4.97;;;;;23.00;101280.00;;;;4908258;29;20370;-64
2022/05/02 12:13:01;;;;;;;8.00;5.40;;;;;23.20;101276.00;;;;4910416;29;20252;-68
2022/05/02 12:15:57;;;;;;;9.47;5.03;;;;;23.20;101285.00;;;;4905948;29;20637;-68
2022/05/02 12:18:46;;;;;;;7.37;5.07;;;;;23.50;101267.00;;;;4918228;29;20730;-68
2022/05/02 12:21:36;;;;;;;6.60;5.30;;;;;23.20;101286.00;;;;4930347;28;20264;-69
2022/05/02 12:24:33;;;;;;;10.40;5.67;;;;;22.70;101293.00;;;;4930893;28;20242;-68
2022/05/02 12:27:20;;;;;;;9.23;5.40;;;;;22.30;101274.00;;;;4911546;29;20824;-68
2022/05/02 12:30:14;;;;;;;9.70;5.40;;;;;21.90;101286.00;;;;4911674;29;20377;-67
2022/05/02 12:33:03;;;;;;;8.23;5.67;;;;;21.70;101286.00;;;;4906558;29;20373;-68
2022/05/02 12:35:53;;;;;;;7.77;4.93;;;;;21.30;101276.00;;;;4905964;29;20244;-68
2022/05/02 12:38:41;;;;;;;8.90;5.77;;;;;21.20;101292.00;;;;4911283;29;20378;-67
2022/05/02 12:41:31;;;;;;;8.63;5.33;;;;;21.00;101283.00;;;;4911251;29;20628;-67
2022/05/02 12:44:19;;;;;;;7.93;4.83;;;;;20.80;101285.00;;;;4911511;29;20312;-67
2022/05/02 12:47:14;;;;;;;8.03;5.37;;;;;20.90;101281.00;;;;4911561;29;20299;-68
2022/05/02 12:50:04;;;;;;;6.33;4.53;;;;;20.80;101282.00;;;;4903585;29;20243;-69
2022/05/02 12:52:54;;;;;;;8.63;5.47;;;;;20.90;101285.00;;;;4905235;29;20235;-68
2022/05/02 12:55:40;;;;;;;7.77;5.57;;;;;21.10;101297.00;;;;4911451;29;20234;-69
2022/05/02 13:01:43;;;;;;;10.40;5.30;;;;;20.90;101272.00;;;;4910589;29;20717;-68
2022/05/02 13:04:31;;;;;;;8.03;5.23;;;;;20.70;101280.00;;;;4911254;29;20238;-68
2022/05/02 13:07:18;;;;;;;8.13;5.77;;;;;20.60;101268.00;;;;4910998;29;20241;-68
2022/05/02 13:10:14;;;;;;;6.10;5.00;;;;;21.10;101268.00;;;;4911133;29;20927;-70
2022/05/02 13:13:03;;;;;;;9.03;6.03;;;;;21.40;101267.00;;;;4905800;29;20348;-68
2022/05/02 13:15:53;;;;;;;7.47;5.03;;;;;22.00;101263.00;;;;4904285;29;20865;-68
2022/05/02 13:18:46;;;;;;;6.73;5.03;;;;;22.50;101261.00;;;;4915593;28;20231;-66
2022/05/02 13:21:33;;;;;;;7.33;5.13;;;;;22.80;101257.00;;;;4929471;28;20872;-68
2022/05/02 13:24:19;;;;;;;9.73;5.67;;;;;23.40;101249.00;;;;4929041;28;20236;-68
2022/05/02 13:27:19;;;;;;;8.33;5.30;;;;;23.30;101223.00;;;;4910912;29;20317;-67
2022/05/02 13:30:08;;;;;;;7.33;5.53;;;;;23.10;101249.00;;;;4906211;29;20261;-68
2022/05/02 13:33:03;;;;;;;7.47;5.20;;;;;22.80;101248.00;;;;4900690;29;20328;-67
2022/05/02 13:35:49;;;;;;;8.60;5.73;;;;;23.00;101244.00;;;;4911216;29;20252;-68
2022/05/02 13:38:44;;;;;;;7.73;4.90;;;;;23.50;101251.00;;;;4910744;29;20241;-67
2022/05/02 13:41:37;;;;;;;9.00;5.37;;;;;23.70;101242.00;;;;4910250;29;20305;-66
2022/05/02 13:44:32;;;;;;;7.20;5.10;;;;;24.00;101235.00;;;;4910662;29;20240;-68
2022/05/02 13:47:22;;;;;;;6.27;5.00;;;;;24.00;101231.00;;;;4910566;29;20266;-67
2022/05/02 13:50:12;;;;;;;8.53;5.87;;;;;24.00;101234.00;;;;4900053;29;20380;-67
2022/05/02 13:53:03;;;;;;;6.30;4.97;;;;;24.40;101231.00;;;;4904327;29;20240;-68
2022/05/02 13:56:18;;;;;;;7.87;5.13;;;;;24.30;101231.00;;;;4910463;29;20840;-67
2022/05/02 13:59:06;;;;;;;6.87;5.03;;;;;23.90;101231.00;;;;4907221;29;20608;-67
2022/05/02 14:02:00;;;;;;;8.17;5.53;;;;;23.60;101222.00;;;;4903155;29;20229;-65
2022/05/02 14:04:53;;;;;;;7.50;5.00;;;;;23.50;101230.00;;;;4902873;29;20233;-68
2022/05/02 14:07:45;;;;;;;9.63;5.00;;;;;23.50;101225.00;;;;4909928;29;20245;-67
2022/05/02 14:10:31;;;;;;;7.73;5.70;;;;;23.60;101226.00;;;;4910181;29;20232;-67
2022/05/02 14:13:18;;;;;;;14.30;5.40;;;;;23.60;101222.00;;;;4910682;29;20754;-68
2022/05/02 14:16:05;;;;;;;7.40;5.10;;;;;23.10;101220.00;;;;4910206;29;20233;-68
2022/05/02 14:18:54;;;;;;;8.27;5.40;;;;;23.50;101212.00;;;;4921907;28;20757;-67
2022/05/02 14:21:45;;;;;;;10.57;5.57;;;;;23.00;101224.00;;;;4909157;29;22260;-68
2022/05/02 14:24:43;;;;;;;8.10;5.13;;;;;23.10;101219.00;;;;4909496;29;20289;-68
2022/05/02 14:27:30;;;;;;;8.97;5.13;;;;;23.00;101222.00;;;;4909139;29;20245;-67
2022/05/02 14:30:24;;;;;;;6.60;5.40;;;;;22.80;101225.00;;;;4909848;29;20245;-67
2022/05/02 14:33:12;;;;;;;8.83;5.33;;;;;23.10;101216.00;;;;4904609;29;20245;-69
2022/05/02 14:35:59;;;;;;;14.00;5.60;;;;;24.00;101221.00;;;;4902360;29;20245;-66
2022/05/02 14:38:46;;;;;;;6.10;5.00;;;;;24.50;101219.00;;;;4909441;29;20236;-68